Time;durP1;ratioP1;P1;durP2;ratioP2;P2;SDS_P1;SDS_P2;PMS_P1;PMS_P2;Temp;Humidity;BMP_temperature;BMP_pressure;BME280_temperature;BME280_humidity;BME280_pressure;Samples;Min_cycle;Max_cycle;Signal;HPM_P1;HPM_P2
2021/06/21 00:01:29;;;;;;;7.05;4.07;;;640.80;2278.40;;;;;;4886660;29;20804;-75
2021/06/21 00:03:54;;;;;;;4.78;3.15;;;640.80;2278.40;;;;;;4894846;29;20028;-75
2021/06/21 00:06:20;;;;;;;5.85;3.97;;;640.70;2304.00;;;;;;4894368;29;20481;-75
2021/06/21 00:08:46;;;;;;;4.95;3.95;;;640.70;2304.00;;;;;;4894470;29;20183;-75
2021/06/21 00:11:12;;;;;;;5.88;3.58;;;640.70;2304.00;;;;;;4897802;29;20558;-77
2021/06/21 00:13:38;;;;;;;5.63;4.00;;;640.70;2304.00;;;;;;4881434;29;20096;-75
2021/06/21 00:16:04;;;;;;;6.38;3.90;;;640.70;2329.60;;;;;;4886015;29;20087;-75
2021/06/21 00:18:30;;;;;;;6.43;4.47;;;640.60;2304.00;;;;;;4894972;29;20031;-75
2021/06/21 00:20:55;;;;;;;4.80;3.80;;;640.60;2304.00;;;;;;4894953;29;20095;-75
2021/06/21 00:23:21;;;;;;;6.07;3.65;;;640.60;2304.00;;;;;;4895783;29;20039;-74
2021/06/21 00:25:48;;;;;;;6.18;4.13;;;640.50;2329.60;;;;;;4898548;29;20389;-74
2021/06/21 00:28:15;;;;;;;7.30;4.05;;;640.50;2329.60;;;;;;4890864;29;20493;-75
2021/06/21 00:30:41;;;;;;;7.72;5.00;;;640.40;2329.60;;;;;;4893907;29;20067;-75
2021/06/21 00:33:06;;;;;;;7.13;4.47;;;640.40;2329.60;;;;;;4882600;29;20507;-75
2021/06/21 00:35:33;;;;;;;7.18;3.97;;;640.40;2329.60;;;;;;4898704;29;20107;-75
2021/06/21 00:37:58;;;;;;;9.55;4.45;;;640.40;2355.20;;;;;;4887874;29;20060;-76
2021/06/21 00:40:25;;;;;;;6.90;5.13;;;640.50;2329.60;;;;;;4890967;29;20557;-76
2021/06/21 00:42:51;;;;;;;10.02;4.00;;;640.50;2329.60;;;;;;4917297;29;20032;-76
2021/06/21 00:45:20;;;;;;;6.75;3.90;;;640.50;2329.60;;;;;;4898325;29;20402;-76
2021/06/21 00:47:47;;;;;;;9.55;4.45;;;640.50;2355.20;;;;;;4900332;29;20397;-76
2021/06/21 00:50:13;;;;;;;7.82;4.60;;;640.50;2355.20;;;;;;4931724;29;20035;-76
2021/06/21 00:52:39;;;;;;;7.55;4.20;;;640.50;2355.20;;;;;;4936203;29;20020;-75
2021/06/21 00:55:06;;;;;;;7.10;4.68;;;640.50;2355.20;;;;;;4936930;29;20028;-76
2021/06/21 00:57:34;;;;;;;5.93;3.90;;;640.40;2380.80;;;;;;4922868;29;20024;-76
2021/06/21 01:00:06;;;;;;;5.32;4.35;;;640.40;2380.80;;;;;;4936781;29;20047;-76
2021/06/21 01:02:32;;;;;;;7.03;3.97;;;640.30;2380.80;;;;;;4932137;29;20028;-76
2021/06/21 01:04:58;;;;;;;5.68;3.78;;;640.20;2406.40;;;;;;4908852;29;20039;-76
2021/06/21 01:07:24;;;;;;;5.88;3.92;;;640.20;2406.40;;;;;;4919164;29;20067;-76
2021/06/21 01:09:53;;;;;;;8.05;4.05;;;640.10;2406.40;;;;;;4918983;29;20023;-75
2021/06/21 01:12:40;;;;;;;4.60;3.67;;;640.00;2432.00;;;;;;4936037;29;20472;-75
2021/06/21 01:15:09;;;;;;;7.75;4.45;;;640.00;2432.00;;;;;;4919010;29;20028;-75
2021/06/21 01:17:51;;;;;;;7.82;5.18;;;615.30;2432.00;;;;;;4917648;29;20036;-75
2021/06/21 01:20:43;;;;;;;6.93;3.97;;;615.30;2432.00;;;;;;4913439;29;20397;-75
2021/06/21 01:23:27;;;;;;;10.18;3.95;;;615.30;2432.00;;;;;;4892742;29;20031;-75
2021/06/21 01:26:22;;;;;;;6.50;4.70;;;615.20;2432.00;;;;;;4918410;29;20035;-75
2021/06/21 01:29:31;;;;;;;7.10;4.13;;;615.10;2432.00;;;;;;4909075;29;20032;-76
2021/06/21 01:32:13;;;;;;;7.20;4.07;;;615.00;2432.00;;;;;;4885603;29;20092;-75
2021/06/21 01:34:46;;;;;;;4.60;3.67;;;615.00;2432.00;;;;;;4913898;29;20047;-75
2021/06/21 01:37:14;;;;;;;7.60;4.40;;;614.90;2432.00;;;;;;4914362;29;20043;-75
2021/06/21 01:39:42;;;;;;;7.70;4.90;;;614.90;2432.00;;;;;;4914416;29;20050;-75
2021/06/21 01:42:12;;;;;;;6.80;5.10;;;614.90;2432.00;;;;;;4916150;29;20119;-75
2021/06/21 01:44:47;;;;;;;10.45;5.80;;;614.70;2432.00;;;;;;4898351;29;20032;-75
2021/06/21 01:47:16;;;;;;;7.40;4.93;;;614.70;2432.00;;;;;;4932157;29;20032;-76
2021/06/21 01:49:46;;;;;;;8.25;5.10;;;614.70;2432.00;;;;;;4935005;29;20031;-76
2021/06/21 01:52:14;;;;;;;9.02;5.28;;;614.60;2432.00;;;;;;4935015;29;20023;-75
2021/06/21 01:54:49;;;;;;;6.57;5.88;;;614.60;2432.00;;;;;;4935727;29;20477;-76
2021/06/21 01:57:22;;;;;;;8.93;5.87;;;614.60;2432.00;;;;;;4932459;29;20596;-76
2021/06/21 01:59:50;;;;;;;11.15;6.15;;;614.50;2432.00;;;;;;4925861;29;20476;-76
2021/06/21 02:02:17;;;;;;;8.70;5.15;;;614.50;2432.00;;;;;;4934507;29;20036;-76
2021/06/21 02:04:46;;;;;;;7.57;5.65;;;614.50;2432.00;;;;;;4917689;29;20026;-76
2021/06/21 02:07:12;;;;;;;7.30;5.55;;;614.40;2432.00;;;;;;4935206;29;20042;-76
2021/06/21 02:09:38;;;;;;;6.50;5.72;;;589.70;2432.00;;;;;;4935410;29;20110;-75
2021/06/21 02:12:06;;;;;;;9.68;6.50;;;589.70;2432.00;;;;;;4918406;29;20512;-75
2021/06/21 02:14:33;;;;;;;7.05;5.30;;;589.70;2432.00;;;;;;4929829;29;20031;-76
2021/06/21 02:17:00;;;;;;;9.30;6.03;;;589.70;2432.00;;;;;;4926927;29;20102;-75
2021/06/21 02:19:29;;;;;;;6.35;5.32;;;589.70;2432.00;;;;;;4917523;29;20023;-75
2021/06/21 02:21:57;;;;;;;11.20;6.13;;;589.70;2432.00;;;;;;4918067;29;20115;-75
2021/06/21 02:24:23;;;;;;;10.52;6.25;;;589.70;2432.00;;;;;;4916882;29;20103;-76
2021/06/21 02:26:50;;;;;;;7.82;6.25;;;589.60;2432.00;;;;;;4916858;29;20370;-75
2021/06/21 02:29:21;;;;;;;9.07;6.25;;;589.70;2432.00;;;;;;4917798;29;20496;-75
2021/06/21 02:31:49;;;;;;;8.07;5.75;;;589.60;2432.00;;;;;;4934315;29;20020;-75
2021/06/21 02:34:15;;;;;;;10.32;5.85;;;589.60;2432.00;;;;;;4917776;29;20028;-75
2021/06/21 02:36:41;;;;;;;8.98;5.85;;;589.70;2432.00;;;;;;4916466;29;20052;-76
2021/06/21 02:39:08;;;;;;;8.43;5.72;;;589.60;2432.00;;;;;;4934786;29;20090;-76
2021/06/21 02:41:34;;;;;;;10.38;6.85;;;589.60;2432.00;;;;;;4917098;29;20047;-75
2021/06/21 02:44:01;;;;;;;10.88;6.88;;;589.60;2432.00;;;;;;4917620;29;20512;-75
2021/06/21 02:46:26;;;;;;;8.95;7.70;;;589.70;2432.00;;;;;;4922975;29;20420;-76
2021/06/21 02:48:52;;;;;;;11.70;7.72;;;589.60;2432.00;;;;;;4918649;29;20059;-76
2021/06/21 02:51:33;;;;;;;11.23;7.43;;;589.60;2432.00;;;;;;4934683;29;20024;-76
2021/06/21 02:54:24;;;;;;;9.75;7.45;;;589.60;2432.00;;;;;;4934144;29;20106;-76
2021/06/21 02:57:15;;;;;;;7.25;6.15;;;589.60;2432.00;;;;;;4903706;29;20028;-76
2021/06/21 02:59:44;;;;;;;8.93;7.45;;;589.60;2432.00;;;;;;4913649;29;20422;-76
2021/06/21 03:02:14;;;;;;;8.75;7.45;;;589.60;2432.00;;;;;;4914030;29;20084;-77
2021/06/21 03:04:42;;;;;;;8.77;7.03;;;589.50;2432.00;;;;;;4896696;29;20056;-76
2021/06/21 03:07:13;;;;;;;10.07;6.97;;;589.50;2432.00;;;;;;4914874;29;20036;-76
2021/06/21 03:09:43;;;;;;;14.15;6.85;;;589.50;2432.00;;;;;;4910134;29;20036;-76
2021/06/21 03:12:10;;;;;;;9.05;6.45;;;589.40;2432.00;;;;;;4917075;29;20019;-76
2021/06/21 03:14:36;;;;;;;10.68;6.97;;;589.30;2432.00;;;;;;4916311;29;20442;-76
2021/06/21 03:17:06;;;;;;;10.45;6.35;;;589.30;2432.00;;;;;;4933606;29;20477;-76
2021/06/21 03:19:33;;;;;;;9.25;6.88;;;589.30;2432.00;;;;;;4916556;29;20036;-76
2021/06/21 03:21:59;;;;;;;8.38;6.20;;;589.20;2432.00;;;;;;4901668;29;20597;-76
2021/06/21 03:24:26;;;;;;;8.02;6.13;;;589.30;2432.00;;;;;;4901945;29;20103;-75
2021/06/21 03:26:52;;;;;;;9.23;5.70;;;589.30;2432.00;;;;;;4914467;29;20080;-75
2021/06/21 03:29:20;;;;;;;10.90;7.05;;;589.30;2432.00;;;;;;4891866;29;20033;-75
2021/06/21 03:31:48;;;;;;;10.30;7.20;;;589.40;2432.00;;;;;;4914607;29;20024;-75
2021/06/21 03:34:14;;;;;;;10.43;6.65;;;589.40;2432.00;;;;;;4915903;29;20028;-75
2021/06/21 03:36:40;;;;;;;9.70;7.13;;;589.50;2432.00;;;;;;4915236;29;20031;-75
2021/06/21 03:39:06;;;;;;;10.35;7.95;;;589.50;2432.00;;;;;;4901896;29;20048;-75
2021/06/21 03:41:33;;;;;;;11.45;7.15;;;589.60;2432.00;;;;;;4895027;29;20079;-75
2021/06/21 03:43:58;;;;;;;11.63;7.55;;;589.70;2432.00;;;;;;4901079;29;20047;-76
2021/06/21 03:46:24;;;;;;;8.05;6.18;;;614.40;2432.00;;;;;;4912779;29;20027;-76
2021/06/21 03:48:50;;;;;;;11.18;7.13;;;614.40;2432.00;;;;;;4920021;29;20505;-76
2021/06/21 03:51:16;;;;;;;10.63;6.20;;;614.50;2432.00;;;;;;4937863;29;20384;-72
2021/06/21 03:53:42;;;;;;;11.20;6.20;;;614.50;2432.00;;;;;;4923488;29;20509;-72
2021/06/21 03:56:08;;;;;;;9.05;6.00;;;614.70;2432.00;;;;;;4911352;29;20032;-74
2021/06/21 03:58:33;;;;;;;12.43;7.68;;;614.80;2432.00;;;;;;4913213;29;20025;-72
2021/06/21 04:00:59;;;;;;;11.15;6.78;;;614.90;2432.00;;;;;;4900647;29;20039;-72
2021/06/21 04:03:25;;;;;;;9.73;6.80;;;615.00;2432.00;;;;;;4917540;29;20056;-73
2021/06/21 04:05:51;;;;;;;9.57;7.40;;;615.10;2432.00;;;;;;4918175;29;20032;-73
2021/06/21 04:08:17;;;;;;;10.63;8.55;;;615.30;2432.00;;;;;;4912706;29;20465;-72
2021/06/21 04:10:48;;;;;;;10.05;8.05;;;640.00;2432.00;;;;;;4915867;29;20039;-73
2021/06/21 04:13:15;;;;;;;10.93;7.40;;;640.10;2432.00;;;;;;4911877;29;20453;-73
2021/06/21 04:15:41;;;;;;;10.10;7.13;;;640.20;2432.00;;;;;;4908243;29;20484;-73
2021/06/21 04:18:10;;;;;;;7.97;6.65;;;640.30;2432.00;;;;;;4903776;29;20032;-73
2021/06/21 04:20:38;;;;;;;9.88;5.88;;;640.50;2432.00;;;;;;4915466;29;20028;-73
2021/06/21 04:23:05;;;;;;;8.25;7.25;;;640.50;2432.00;;;;;;4900169;29;20044;-73
2021/06/21 04:25:31;;;;;;;11.80;6.75;;;640.80;2406.40;;;;;;4909454;29;20024;-73
2021/06/21 04:27:57;;;;;;;10.15;7.13;;;640.80;2380.80;;;;;;4913368;29;20107;-73
2021/06/21 04:30:24;;;;;;;12.23;7.57;;;665.70;2406.40;;;;;;4896074;29;20123;-73
2021/06/21 04:32:51;;;;;;;14.63;6.70;;;665.70;2380.80;;;;;;4917236;29;20103;-73
2021/06/21 04:35:20;;;;;;;7.25;6.20;;;665.70;2380.80;;;;;;4917826;29;20032;-73
2021/06/21 04:37:46;;;;;;;10.40;6.82;;;665.80;2380.80;;;;;;4899514;29;20142;-73
2021/06/21 04:40:14;;;;;;;9.50;7.45;;;665.90;2355.20;;;;;;4912970;29;20047;-73
2021/06/21 04:42:41;;;;;;;10.35;7.53;;;665.80;2380.80;;;;;;4893441;29;20020;-73
2021/06/21 04:45:08;;;;;;;12.77;8.73;;;666.20;2355.20;;;;;;4917498;29;20075;-73
2021/06/21 04:47:34;;;;;;;12.93;9.68;;;666.30;2355.20;;;;;;4923035;29;20111;-73
2021/06/21 04:50:08;;;;;;;11.27;7.18;;;691.20;2304.00;;;;;;4936397;29;20106;-73
2021/06/21 04:52:35;;;;;;;10.48;6.95;;;691.50;2278.40;;;;;;4910556;29;20162;-73
2021/06/21 04:55:02;;;;;;;10.18;6.88;;;691.50;2278.40;;;;;;4918804;29;20023;-73
2021/06/21 04:57:29;;;;;;;9.18;6.90;;;691.80;2278.40;;;;;;4918310;29;20032;-73
2021/06/21 04:59:55;;;;;;;9.43;6.80;;;692.00;2227.20;;;;;;4913645;29;20036;-73
2021/06/21 05:02:22;;;;;;;9.50;6.28;;;716.80;2252.80;;;;;;4907963;29;20041;-73
2021/06/21 05:04:48;;;;;;;8.80;6.22;;;717.00;2252.80;;;;;;4907063;29;20043;-74
2021/06/21 05:07:14;;;;;;;9.50;6.57;;;717.10;2227.20;;;;;;4917271;29;20036;-74
2021/06/21 05:09:40;;;;;;;12.45;7.45;;;717.20;2227.20;;;;;;4906968;29;20040;-74
2021/06/21 05:12:06;;;;;;;8.80;6.32;;;717.30;2201.60;;;;;;4917415;29;20021;-73
2021/06/21 05:14:32;;;;;;;8.63;6.78;;;717.40;2201.60;;;;;;4915532;29;20044;-74
2021/06/21 05:16:57;;;;;;;10.57;6.28;;;717.50;2176.00;;;;;;4908087;29;20457;-74
2021/06/21 05:19:23;;;;;;;9.80;6.13;;;717.70;2150.40;;;;;;4916991;29;20386;-73
2021/06/21 05:21:49;;;;;;;10.35;6.30;;;742.40;2176.00;;;;;;4916392;29;20536;-74
2021/06/21 05:24:15;;;;;;;7.32;5.93;;;742.60;2150.40;;;;;;4891045;29;20084;-74
2021/06/21 05:26:40;;;;;;;7.90;5.40;;;742.60;2150.40;;;;;;4899627;29;20449;-73
2021/06/21 05:29:06;;;;;;;12.63;5.80;;;742.70;2124.80;;;;;;4911519;29;20055;-74
2021/06/21 05:31:32;;;;;;;12.80;5.97;;;743.00;2124.80;;;;;;4912797;29;20024;-73
2021/06/21 05:33:57;;;;;;;7.72;5.13;;;743.10;2124.80;;;;;;4903470;29;20461;-73
2021/06/21 05:36:23;;;;;;;10.98;6.28;;;743.20;2099.20;;;;;;4899172;29;20031;-74
2021/06/21 05:38:49;;;;;;;9.00;5.75;;;743.30;2073.60;;;;;;4905326;29;20135;-74
2021/06/21 05:41:14;;;;;;;6.90;5.35;;;768.10;2073.60;;;;;;4899091;29;20032;-74
2021/06/21 05:43:40;;;;;;;7.82;5.28;;;768.20;2073.60;;;;;;4913509;29;20028;-74
2021/06/21 05:46:06;;;;;;;12.57;5.60;;;768.20;2048.00;;;;;;4899213;29;20039;-73
2021/06/21 05:48:31;;;;;;;8.20;5.47;;;768.40;2048.00;;;;;;4929951;29;20082;-73
2021/06/21 05:51:00;;;;;;;9.30;6.43;;;768.50;2022.40;;;;;;4913372;29;20039;-73
2021/06/21 05:53:28;;;;;;;5.85;5.22;;;768.70;2022.40;;;;;;4911461;29;20500;-73
2021/06/21 05:55:55;;;;;;;10.57;6.05;;;768.80;1996.80;;;;;;4935057;29;20015;-73
2021/06/21 05:58:21;;;;;;;10.00;5.97;;;768.70;2022.40;;;;;;4934144;29;20039;-73
2021/06/21 06:00:46;;;;;;;10.52;5.55;;;768.90;1996.80;;;;;;4926319;29;20036;-74
2021/06/21 06:03:12;;;;;;;16.23;5.68;;;793.60;2022.40;;;;;;4911388;29;20122;-73
2021/06/21 06:05:38;;;;;;;11.30;5.25;;;793.80;1996.80;;;;;;4895177;29;20028;-74
2021/06/21 06:08:04;;;;;;;9.75;5.75;;;793.60;2022.40;;;;;;4891354;29;20046;-74
2021/06/21 06:10:30;;;;;;;12.88;5.63;;;793.90;1996.80;;;;;;4887448;29;20490;-73
2021/06/21 06:12:55;;;;;;;8.00;4.75;;;794.00;1996.80;;;;;;4907722;29;20021;-73
2021/06/21 06:15:23;;;;;;;9.23;5.20;;;794.30;1971.20;;;;;;4904542;29;20103;-73
2021/06/21 06:17:49;;;;;;;12.32;5.78;;;794.40;1971.20;;;;;;4889850;29;20119;-73
2021/06/21 06:20:15;;;;;;;7.97;5.28;;;794.50;1945.60;;;;;;4894807;29;20043;-73
2021/06/21 06:22:41;;;;;;;9.52;5.60;;;794.50;1945.60;;;;;;4903407;29;20028;-73
2021/06/21 06:25:08;;;;;;;8.25;5.10;;;819.40;1920.00;;;;;;4910235;29;20062;-73
2021/06/21 06:27:34;;;;;;;9.93;6.22;;;819.50;1945.60;;;;;;4912077;29;20497;-73
2021/06/21 06:30:00;;;;;;;8.35;5.72;;;819.70;1920.00;;;;;;4889263;29;20079;-73
2021/06/21 06:32:26;;;;;;;9.43;5.10;;;819.90;1894.40;;;;;;4901342;29;20752;-73
2021/06/21 06:34:52;;;;;;;8.40;5.50;;;819.90;1894.40;;;;;;4891557;29;20039;-73
2021/06/21 06:37:17;;;;;;;8.38;5.43;;;820.00;1868.80;;;;;;4908356;29;20174;-73
2021/06/21 06:39:43;;;;;;;9.05;4.20;;;844.90;1868.80;;;;;;4910343;29;20036;-73
2021/06/21 06:42:09;;;;;;;9.02;4.97;;;845.00;1843.20;;;;;;4888661;29;20066;-73
2021/06/21 06:44:37;;;;;;;9.57;4.95;;;845.20;1843.20;;;;;;4902737;29;20390;-73
2021/06/21 06:47:04;;;;;;;6.50;4.93;;;845.50;1817.60;;;;;;4916174;29;20111;-73
2021/06/21 06:49:30;;;;;;;13.60;6.00;;;870.60;1792.00;;;;;;4903037;29;20111;-73
2021/06/21 06:51:56;;;;;;;5.20;4.70;;;870.80;1766.40;;;;;;4897837;29;20268;-73
2021/06/21 06:54:28;;;;;;;6.47;4.45;;;870.90;1740.80;;;;;;4910234;29;20064;-73
2021/06/21 06:57:00;;;;;;;5.03;4.53;;;871.30;1689.60;;;;;;4894672;29;20179;-73
2021/06/21 06:59:31;;;;;;;7.60;4.70;;;896.20;1689.60;;;;;;4884423;29;20402;-73
2021/06/21 07:02:02;;;;;;;4.90;4.18;;;896.20;1689.60;;;;;;4912947;29;20020;-74
2021/06/21 07:04:30;;;;;;;10.32;4.85;;;896.30;1664.00;;;;;;4906976;29;20024;-74
2021/06/21 07:06:59;;;;;;;6.03;3.72;;;896.20;1638.40;;;;;;4882920;29;20037;-74
2021/06/21 07:09:26;;;;;;;8.73;4.28;;;871.30;1638.40;;;;;;4890132;29;20426;-74
2021/06/21 07:11:53;;;;;;;6.03;4.13;;;871.20;1638.40;;;;;;4886324;29;20036;-73
2021/06/21 07:14:19;;;;;;;6.47;4.03;;;871.00;1664.00;;;;;;4892550;29;20202;-74
2021/06/21 07:16:48;;;;;;;6.32;4.32;;;871.00;1689.60;;;;;;4897070;29;20032;-73
2021/06/21 07:19:15;;;;;;;6.55;4.45;;;870.90;1715.20;;;;;;4912118;29;20078;-74
2021/06/21 07:21:41;;;;;;;8.07;4.03;;;871.00;1715.20;;;;;;4904161;29;20024;-73
2021/06/21 07:24:09;;;;;;;6.72;4.80;;;870.80;1689.60;;;;;;4912487;29;20035;-73
2021/06/21 07:26:36;;;;;;;9.95;4.22;;;870.60;1715.20;;;;;;4904249;29;20034;-73
2021/06/21 07:29:02;;;;;;;6.30;4.07;;;870.60;1715.20;;;;;;4888831;29;20397;-73
2021/06/21 07:31:28;;;;;;;4.32;3.67;;;870.80;1715.20;;;;;;4907570;29;20032;-73
2021/06/21 07:33:54;;;;;;;7.45;3.95;;;871.10;1715.20;;;;;;4894738;29;20549;-73
2021/06/21 07:36:20;;;;;;;7.88;3.90;;;870.60;1715.20;;;;;;4889188;29;20418;-73
2021/06/21 07:38:45;;;;;;;10.52;4.40;;;870.60;1715.20;;;;;;4893584;29;20135;-73
2021/06/21 07:41:11;;;;;;;8.55;4.45;;;870.90;1715.20;;;;;;4905559;29;20487;-73
2021/06/21 07:43:37;;;;;;;6.35;4.30;;;871.20;1664.00;;;;;;4906356;29;20024;-73
2021/06/21 07:46:04;;;;;;;7.60;4.82;;;871.30;1664.00;;;;;;4902850;29;20390;-73
2021/06/21 07:48:30;;;;;;;7.13;4.00;;;896.30;1638.40;;;;;;4907573;29;20036;-73
2021/06/21 07:50:56;;;;;;;7.30;4.60;;;896.50;1612.80;;;;;;4885269;29;20025;-73
2021/06/21 07:53:22;;;;;;;5.15;4.25;;;896.50;1587.20;;;;;;4906517;29;20052;-73
2021/06/21 07:55:48;;;;;;;7.13;3.97;;;896.50;1612.80;;;;;;4909286;29;20100;-73
2021/06/21 07:58:13;;;;;;;6.72;4.20;;;921.60;1612.80;;;;;;4888622;29;20044;-73
2021/06/21 08:00:40;;;;;;;5.88;4.20;;;921.70;1612.80;;;;;;4890351;29;20040;-73
2021/06/21 08:03:10;;;;;;;8.43;4.18;;;922.10;1587.20;;;;;;4908376;29;20029;-73
2021/06/21 08:05:37;;;;;;;5.18;3.75;;;922.10;1587.20;;;;;;4905542;29;20028;-73
2021/06/21 08:08:04;;;;;;;4.72;3.60;;;922.00;1561.60;;;;;;4905989;29;20040;-73
2021/06/21 08:10:30;;;;;;;6.05;3.65;;;922.20;1561.60;;;;;;4908211;29;20167;-73
2021/06/21 08:12:55;;;;;;;5.35;4.13;;;922.20;1536.00;;;;;;4910705;29;20103;-74
2021/06/21 08:15:21;;;;;;;6.35;3.72;;;947.30;1510.40;;;;;;4902331;29;20397;-77
2021/06/21 08:17:47;;;;;;;13.20;6.68;;;947.60;1459.20;;;;;;4906933;29;20024;-76
2021/06/21 08:20:13;;;;;;;15.00;7.85;;;947.60;1484.80;;;;;;4904485;29;20151;-78
2021/06/21 08:22:40;;;;;;;10.45;5.20;;;947.50;1484.80;;;;;;4905598;29;20034;-78
2021/06/21 08:25:06;;;;;;;7.18;3.63;;;947.80;1459.20;;;;;;4891324;29;20182;-79
2021/06/21 08:27:32;;;;;;;8.25;4.50;;;947.50;1433.60;;;;;;4908147;29;20040;-79
2021/06/21 08:29:59;;;;;;;9.85;5.65;;;947.60;1459.20;;;;;;4895123;29;20032;-78
2021/06/21 08:32:26;;;;;;;11.68;5.05;;;948.10;1459.20;;;;;;4890669;29;20123;-78
2021/06/21 08:34:51;;;;;;;8.13;4.50;;;948.10;1459.20;;;;;;4887760;29;20462;-78
2021/06/21 08:37:18;;;;;;;6.72;4.40;;;973.10;1484.80;;;;;;4890640;29;20036;-77
2021/06/21 08:39:44;;;;;;;5.22;3.67;;;973.40;1382.40;;;;;;4907932;29;20033;-78
2021/06/21 08:42:10;;;;;;;5.45;3.00;;;973.70;1356.80;;;;;;4898126;29;20039;-78
2021/06/21 08:44:37;;;;;;;10.13;4.85;;;998.40;1356.80;;;;;;4891262;29;20040;-77
2021/06/21 08:47:04;;;;;;;4.97;3.15;;;998.50;1356.80;;;;;;4894832;29;20036;-78
2021/06/21 08:49:33;;;;;;;5.72;3.58;;;998.70;1331.20;;;;;;4907721;29;20037;-78
2021/06/21 08:52:00;;;;;;;5.65;3.80;;;998.70;1305.60;;;;;;4905340;29;20047;-78
2021/06/21 08:54:26;;;;;;;6.38;4.03;;;998.90;1280.00;;;;;;4896903;29;20025;-78
2021/06/21 08:56:57;;;;;;;10.50;4.50;;;999.00;1305.60;;;;;;4899893;29;20048;-78
2021/06/21 08:59:23;;;;;;;6.35;4.10;;;998.90;1280.00;;;;;;4908063;29;20024;-79
2021/06/21 09:01:49;;;;;;;6.82;4.05;;;999.20;1280.00;;;;;;4909343;29;20044;-77
2021/06/21 09:04:16;;;;;;;5.13;3.42;;;999.10;1280.00;;;;;;4910308;29;20027;-77
2021/06/21 09:06:45;;;;;;;4.15;3.58;;;999.20;1254.40;;;;;;4913358;29;20020;-78
2021/06/21 09:09:11;;;;;;;6.40;4.03;;;999.20;1254.40;;;;;;4906851;29;20164;-78
2021/06/21 09:11:46;;;;;;;7.10;5.30;;;1024.00;1228.80;;;;;;4895762;29;20115;-77
2021/06/21 09:14:24;;;;;;;;;;;1024.30;1203.20;;;;;;4894682;29;20036;-77
2021/06/21 09:16:50;;;;;;;5.45;3.40;;;1024.30;1203.20;;;;;;4891027;29;19922;-77
2021/06/21 09:19:18;;;;;;;4.25;3.70;;;1024.10;1203.20;;;;;;4890777;29;20039;-77
2021/06/21 09:21:44;;;;;;;7.13;4.13;;;1024.30;1177.60;;;;;;4891377;29;20095;-77
2021/06/21 09:24:19;;;;;;;6.93;3.58;;;1024.60;1177.60;;;;;;4891114;29;20127;-77
2021/06/21 09:26:47;;;;;;;4.10;3.42;;;1024.70;1177.60;;;;;;4909489;29;20036;-77
2021/06/21 09:29:14;;;;;;;4.43;3.80;;;1049.60;1177.60;;;;;;4890961;29;20040;-77
2021/06/21 09:31:56;;;;;;;9.30;5.43;;;1049.60;1177.60;;;;;;4893635;29;20505;-78
2021/06/21 09:34:24;;;;;;;4.82;3.58;;;1049.70;1177.60;;;;;;4906903;29;20031;-78
2021/06/21 09:36:50;;;;;;;5.90;3.20;;;1049.70;1152.00;;;;;;4906729;29;20513;-77
2021/06/21 09:39:25;;;;;;;4.75;3.97;;;1049.90;1126.40;;;;;;4913696;29;20071;-79
2021/06/21 09:42:09;;;;;;;4.90;4.03;;;1049.90;1126.40;;;;;;4900472;29;20044;-78
2021/06/21 09:44:47;;;;;;;5.68;5.00;;;1050.20;1100.80;;;;;;4908693;29;20021;-78
2021/06/21 09:47:41;;;;;;;5.60;3.65;;;1050.20;1100.80;;;;;;4896472;29;20079;-77
2021/06/21 09:50:15;;;;;;;4.97;4.00;;;1050.10;1075.20;;;;;;4907174;29;20032;-77
2021/06/21 09:52:46;;;;;;;4.50;3.63;;;1075.40;1049.60;;;;;;4890277;29;20032;-77
2021/06/21 09:55:18;;;;;;;4.85;3.63;;;1050.40;1075.20;;;;;;4908622;29;20262;-77
2021/06/21 09:57:45;;;;;;;4.40;3.67;;;1075.40;1075.20;;;;;;4887979;29;20553;-78
2021/06/21 10:00:13;;;;;;;5.47;3.75;;;1075.60;1049.60;;;;;;4890062;29;20032;-77
2021/06/21 10:02:39;;;;;;;3.90;3.50;;;1075.70;1049.60;;;;;;4890086;29;20123;-77
2021/06/21 10:05:17;;;;;;;6.60;4.10;;;1075.60;1049.60;;;;;;4901834;29;20034;-76
2021/06/21 10:07:43;;;;;;;5.30;4.28;;;1076.00;1075.20;;;;;;4888088;29;20063;-77
2021/06/21 10:10:16;;;;;;;5.50;3.95;;;1076.00;1049.60;;;;;;4888596;29;20028;-76
2021/06/21 10:12:42;;;;;;;4.93;3.40;;;1075.60;998.40;;;;;;4890959;29;20027;-75
2021/06/21 10:15:10;;;;;;;4.53;3.45;;;1075.20;1024.00;;;;;;4910184;29;20016;-77
2021/06/21 10:17:37;;;;;;;6.20;3.42;;;1075.20;998.40;;;;;;4903233;29;20075;-77
2021/06/21 10:20:04;;;;;;;3.90;3.38;;;1075.30;1024.00;;;;;;4893366;29;20036;-76
2021/06/21 10:22:30;;;;;;;5.65;4.10;;;1075.20;1049.60;;;;;;4887886;29;20138;-76
2021/06/21 10:24:57;;;;;;;4.82;3.75;;;1050.20;1075.20;;;;;;4908977;29;20430;-74
2021/06/21 10:27:25;;;;;;;5.03;4.13;;;1049.60;1075.20;;;;;;4913197;29;20028;-75
2021/06/21 10:29:54;;;;;;;13.88;4.80;;;1049.90;1075.20;;;;;;4894635;29;20119;-76
2021/06/21 10:32:21;;;;;;;6.35;4.03;;;1024.90;1075.20;;;;;;4883664;29;20041;-76
2021/06/21 10:34:48;;;;;;;5.03;3.53;;;1024.50;1100.80;;;;;;4909741;29;20063;-76
2021/06/21 10:37:14;;;;;;;5.10;3.55;;;999.30;1126.40;;;;;;4905868;29;20370;-75
2021/06/21 10:39:51;;;;;;;4.25;3.47;;;999.10;1126.40;;;;;;4890240;29;20075;-74
2021/06/21 10:42:26;;;;;;;4.65;3.42;;;999.30;1100.80;;;;;;4905198;29;20037;-74
2021/06/21 10:44:55;;;;;;;7.80;4.90;;;1024.50;1049.60;;;;;;4903608;29;20148;-74
2021/06/21 10:47:44;;;;;;;17.98;9.95;;;1024.70;1049.60;;;;;;4884338;29;20079;-74
2021/06/21 10:50:16;;;;;;;6.00;5.07;;;1049.90;1075.20;;;;;;4906044;29;20035;-75
2021/06/21 10:52:51;;;;;;;16.65;14.35;;;1050.40;1049.60;;;;;;4905791;29;20029;-75
2021/06/21 10:55:26;;;;;;;10.98;9.65;;;1050.50;1049.60;;;;;;4904913;29;20052;-75
2021/06/21 10:57:52;;;;;;;;;;;1050.50;1049.60;;;;;;4888353;29;20048;-75
2021/06/21 11:00:22;;;;;;;5.90;3.60;;;1049.90;1075.20;;;;;;4895408;29;19963;-75
2021/06/21 11:02:48;;;;;;;5.38;4.00;;;1024.80;1049.60;;;;;;4909802;29;20108;-75
2021/06/21 11:05:39;;;;;;;7.63;5.28;;;1024.20;1075.20;;;;;;4909615;29;20568;-75
2021/06/21 11:08:19;;;;;;;10.73;7.38;;;1024.50;1049.60;;;;;;4894464;29;20179;-75
2021/06/21 11:10:51;;;;;;;5.93;3.83;;;1024.20;1075.20;;;;;;4907531;29;20482;-76
2021/06/21 11:13:35;;;;;;;9.82;5.85;;;1024.00;1100.80;;;;;;4892336;29;20804;-75
2021/06/21 11:16:20;;;;;;;4.35;3.67;;;1024.60;1075.20;;;;;;4902936;29;20068;-77
2021/06/21 11:18:49;;;;;;;5.18;3.67;;;1049.70;1075.20;;;;;;4910620;29;20116;-77
2021/06/21 11:21:19;;;;;;;4.85;4.25;;;1050.30;1049.60;;;;;;4905823;29;20028;-76
2021/06/21 11:23:48;;;;;;;5.85;3.63;;;1075.30;1024.00;;;;;;4890464;29;20040;-76
2021/06/21 11:26:14;;;;;;;6.53;4.40;;;1075.40;1024.00;;;;;;4891551;29;20040;-76
2021/06/21 11:28:42;;;;;;;4.57;4.18;;;1075.30;1024.00;;;;;;4900267;29;20024;-75
2021/06/21 11:31:26;;;;;;;6.30;4.28;;;1049.80;1049.60;;;;;;4909098;29;20069;-77
2021/06/21 11:33:55;;;;;;;5.60;4.05;;;1024.60;1049.60;;;;;;4903967;29;20485;-77
2021/06/21 11:36:37;;;;;;;9.63;4.18;;;1024.30;1049.60;;;;;;4908706;29;20142;-76
2021/06/21 11:39:22;;;;;;;4.75;4.15;;;999.30;1126.40;;;;;;4904907;29;20049;-76
2021/06/21 11:41:55;;;;;;;7.18;4.10;;;999.30;1126.40;;;;;;4892111;29;20500;-76
2021/06/21 11:44:36;;;;;;;4.32;3.92;;;1024.00;1126.40;;;;;;4903431;29;20502;-77
2021/06/21 11:47:29;;;;;;;4.55;3.60;;;1024.50;1100.80;;;;;;4893707;29;20115;-76
2021/06/21 11:50:06;;;;;;;5.93;4.45;;;1024.50;1075.20;;;;;;4902376;29;20417;-76
2021/06/21 11:52:32;;;;;;;5.55;4.15;;;1024.70;1075.20;;;;;;4886569;29;20025;-76
2021/06/21 11:55:16;;;;;;;7.82;4.15;;;1049.80;1075.20;;;;;;4888141;29;20043;-76
2021/06/21 11:57:44;;;;;;;5.78;4.07;;;1050.10;1049.60;;;;;;4907378;29;20031;-76
2021/06/21 12:00:11;;;;;;;4.82;4.00;;;1050.10;1075.20;;;;;;4909680;29;20032;-76
2021/06/21 12:02:37;;;;;;;4.18;3.78;;;1050.40;1049.60;;;;;;4907986;29;20037;-77
2021/06/21 12:05:13;;;;;;;8.80;4.28;;;1050.30;1049.60;;;;;;4893789;29;20602;-76
2021/06/21 12:07:44;;;;;;;6.50;4.15;;;1075.20;1049.60;;;;;;4889902;29;20048;-77
2021/06/21 12:10:18;;;;;;;6.43;4.70;;;1075.90;1024.00;;;;;;4909374;29;20037;-77
2021/06/21 12:12:46;;;;;;;5.47;4.38;;;1100.80;1024.00;;;;;;4895317;29;20060;-77
2021/06/21 12:15:15;;;;;;;5.50;4.65;;;1101.40;1024.00;;;;;;4888770;29;20036;-77
2021/06/21 12:17:41;;;;;;;5.18;4.03;;;1101.70;972.80;;;;;;4888844;29;20492;-77
2021/06/21 12:20:18;;;;;;;7.47;5.07;;;1126.50;1024.00;;;;;;4909277;29;20032;-77
2021/06/21 12:23:00;;;;;;;7.13;4.25;;;1126.90;1024.00;;;;;;4891114;29;20403;-76